sensor_id;sensor_type;location;lat;lon;timestamp;P1;durP1;ratioP1;P2;durP2;ratioP2
16969;SDS011;8601;48.718;8.992;2023-04-06T00:00:33;13.07;;;9.97;;
16969;SDS011;8601;48.718;8.992;2023-04-06T00:03:00;10.10;;;9.00;;
16969;SDS011;8601;48.718;8.992;2023-04-06T00:05:28;13.47;;;10.00;;
16969;SDS011;8601;48.718;8.992;2023-04-06T00:07:56;11.00;;;9.30;;
16969;SDS011;8601;48.718;8.992;2023-04-06T00:10:23;13.33;;;10.10;;
16969;SDS011;8601;48.718;8.992;2023-04-06T00:12:52;11.97;;;10.03;;
16969;SDS011;8601;48.718;8.992;2023-04-06T00:15:19;12.90;;;9.53;;
16969;SDS011;8601;48.718;8.992;2023-04-06T00:17:46;9.80;;;8.80;;
16969;SDS011;8601;48.718;8.992;2023-04-06T00:20:13;10.93;;;9.83;;
16969;SDS011;8601;48.718;8.992;2023-04-06T00:22:40;10.47;;;9.37;;
16969;SDS011;8601;48.718;8.992;2023-04-06T00:25:08;12.53;;;10.07;;
16969;SDS011;8601;48.718;8.992;2023-04-06T00:27:36;11.63;;;9.77;;
16969;SDS011;8601;48.718;8.992;2023-04-06T00:30:05;11.73;;;9.23;;
16969;SDS011;8601;48.718;8.992;2023-04-06T00:32:34;12.07;;;9.30;;
16969;SDS011;8601;48.718;8.992;2023-04-06T00:35:01;14.60;;;10.40;;
16969;SDS011;8601;48.718;8.992;2023-04-06T00:37:29;9.90;;;8.83;;
16969;SDS011;8601;48.718;8.992;2023-04-06T00:39:56;9.87;;;8.50;;
16969;SDS011;8601;48.718;8.992;2023-04-06T00:42:23;9.17;;;8.17;;
16969;SDS011;8601;48.718;8.992;2023-04-06T00:44:51;8.80;;;7.90;;
16969;SDS011;8601;48.718;8.992;2023-04-06T00:47:20;10.80;;;7.87;;
16969;SDS011;8601;48.718;8.992;2023-04-06T00:49:47;9.50;;;8.60;;
16969;SDS011;8601;48.718;8.992;2023-04-06T00:52:15;11.17;;;8.63;;
16969;SDS011;8601;48.718;8.992;2023-04-06T00:54:42;14.00;;;8.57;;
16969;SDS011;8601;48.718;8.992;2023-04-06T00:57:09;10.03;;;8.57;;
16969;SDS011;8601;48.718;8.992;2023-04-06T00:59:37;10.50;;;8.63;;
16969;SDS011;8601;48.718;8.992;2023-04-06T01:02:05;9.53;;;8.33;;
16969;SDS011;8601;48.718;8.992;2023-04-06T01:04:34;10.87;;;8.87;;
16969;SDS011;8601;48.718;8.992;2023-04-06T01:07:01;9.73;;;8.70;;
16969;SDS011;8601;48.718;8.992;2023-04-06T01:09:29;10.97;;;8.43;;
16969;SDS011;8601;48.718;8.992;2023-04-06T01:11:57;9.90;;;8.53;;
16969;SDS011;8601;48.718;8.992;2023-04-06T01:14:24;10.20;;;8.43;;
16969;SDS011;8601;48.718;8.992;2023-04-06T01:16:52;8.87;;;7.73;;
16969;SDS011;8601;48.718;8.992;2023-04-06T01:19:19;9.83;;;8.37;;
16969;SDS011;8601;48.718;8.992;2023-04-06T01:21:48;9.10;;;8.20;;
16969;SDS011;8601;48.718;8.992;2023-04-06T01:24:17;9.93;;;8.93;;
16969;SDS011;8601;48.718;8.992;2023-04-06T01:26:44;10.67;;;9.23;;
16969;SDS011;8601;48.718;8.992;2023-04-06T01:29:11;9.83;;;8.83;;
16969;SDS011;8601;48.718;8.992;2023-04-06T01:31:39;10.00;;;8.27;;
16969;SDS011;8601;48.718;8.992;2023-04-06T01:34:06;10.37;;;8.50;;
16969;SDS011;8601;48.718;8.992;2023-04-06T01:36:34;9.23;;;8.27;;
16969;SDS011;8601;48.718;8.992;2023-04-06T01:39:01;10.17;;;9.17;;
16969;SDS011;8601;48.718;8.992;2023-04-06T01:41:29;9.90;;;8.53;;
16969;SDS011;8601;48.718;8.992;2023-04-06T01:43:57;10.43;;;9.17;;
16969;SDS011;8601;48.718;8.992;2023-04-06T01:46:24;11.83;;;9.97;;
16969;SDS011;8601;48.718;8.992;2023-04-06T01:48:51;11.77;;;9.30;;
16969;SDS011;8601;48.718;8.992;2023-04-06T01:51:19;13.43;;;10.20;;
16969;SDS011;8601;48.718;8.992;2023-04-06T01:53:46;10.60;;;9.40;;
16969;SDS011;8601;48.718;8.992;2023-04-06T01:56:14;10.37;;;9.27;;
16969;SDS011;8601;48.718;8.992;2023-04-06T01:58:47;11.40;;;9.20;;
16969;SDS011;8601;48.718;8.992;2023-04-06T02:01:15;10.63;;;9.37;;
16969;SDS011;8601;48.718;8.992;2023-04-06T02:03:42;11.23;;;8.83;;
16969;SDS011;8601;48.718;8.992;2023-04-06T02:06:09;10.57;;;9.47;;
16969;SDS011;8601;48.718;8.992;2023-04-06T02:08:36;12.07;;;10.00;;
16969;SDS011;8601;48.718;8.992;2023-04-06T02:11:07;11.27;;;9.97;;
16969;SDS011;8601;48.718;8.992;2023-04-06T02:13:34;10.37;;;9.27;;
16969;SDS011;8601;48.718;8.992;2023-04-06T02:16:03;11.57;;;9.73;;
16969;SDS011;8601;48.718;8.992;2023-04-06T02:18:33;10.67;;;9.43;;
16969;SDS011;8601;48.718;8.992;2023-04-06T02:21:02;11.73;;;9.30;;
16969;SDS011;8601;48.718;8.992;2023-04-06T02:23:45;10.47;;;9.47;;
16969;SDS011;8601;48.718;8.992;2023-04-06T02:26:16;11.27;;;9.30;;
16969;SDS011;8601;48.718;8.992;2023-04-06T02:28:53;10.37;;;9.37;;
16969;SDS011;8601;48.718;8.992;2023-04-06T02:31:38;11.23;;;9.67;;
16969;SDS011;8601;48.718;8.992;2023-04-06T02:34:54;11.47;;;9.17;;
16969;SDS011;8601;48.718;8.992;2023-04-06T02:38:21;10.63;;;9.53;;
16969;SDS011;8601;48.718;8.992;2023-04-06T02:44:22;13.13;;;9.57;;
16969;SDS011;8601;48.718;8.992;2023-04-06T02:47:09;11.57;;;9.67;;
16969;SDS011;8601;48.718;8.992;2023-04-06T02:50:00;10.43;;;9.33;;
16969;SDS011;8601;48.718;8.992;2023-04-06T02:52:51;10.53;;;8.97;;
16969;SDS011;8601;48.718;8.992;2023-04-06T02:55:46;10.67;;;9.57;;
16969;SDS011;8601;48.718;8.992;2023-04-06T02:58:44;10.27;;;9.17;;
16969;SDS011;8601;48.718;8.992;2023-04-06T03:01:18;10.80;;;9.03;;
16969;SDS011;8601;48.718;8.992;2023-04-06T03:03:51;10.87;;;9.77;;
16969;SDS011;8601;48.718;8.992;2023-04-06T03:06:18;10.83;;;9.83;;
16969;SDS011;8601;48.718;8.992;2023-04-06T03:08:46;11.10;;;9.37;;
16969;SDS011;8601;48.718;8.992;2023-04-06T03:11:18;11.80;;;9.97;;
16969;SDS011;8601;48.718;8.992;2023-04-06T03:13:45;10.77;;;9.67;;
16969;SDS011;8601;48.718;8.992;2023-04-06T03:16:13;11.47;;;9.70;;
16969;SDS011;8601;48.718;8.992;2023-04-06T03:18:44;10.83;;;9.73;;
16969;SDS011;8601;48.718;8.992;2023-04-06T03:21:14;10.27;;;9.27;;
16969;SDS011;8601;48.718;8.992;2023-04-06T03:23:43;11.73;;;10.10;;
16969;SDS011;8601;48.718;8.992;2023-04-06T03:26:17;10.83;;;9.73;;
16969;SDS011;8601;48.718;8.992;2023-04-06T03:28:45;13.83;;;9.53;;
16969;SDS011;8601;48.718;8.992;2023-04-06T03:31:20;11.17;;;10.00;;
16969;SDS011;8601;48.718;8.992;2023-04-06T03:33:49;15.13;;;10.53;;
16969;SDS011;8601;48.718;8.992;2023-04-06T03:36:21;11.03;;;9.77;;
16969;SDS011;8601;48.718;8.992;2023-04-06T03:38:55;13.23;;;10.53;;
16969;SDS011;8601;48.718;8.992;2023-04-06T03:41:34;14.43;;;9.60;;
16969;SDS011;8601;48.718;8.992;2023-04-06T03:44:08;11.80;;;10.40;;
16969;SDS011;8601;48.718;8.992;2023-04-06T03:46:39;10.40;;;9.40;;
16969;SDS011;8601;48.718;8.992;2023-04-06T03:49:15;13.23;;;9.40;;
16969;SDS011;8601;48.718;8.992;2023-04-06T03:55:20;12.90;;;10.30;;
16969;SDS011;8601;48.718;8.992;2023-04-06T03:58:25;10.60;;;9.43;;
16969;SDS011;8601;48.718;8.992;2023-04-06T04:02:00;10.57;;;9.47;;
16969;SDS011;8601;48.718;8.992;2023-04-06T04:05:03;11.73;;;9.33;;
16969;SDS011;8601;48.718;8.992;2023-04-06T04:07:55;10.70;;;9.60;;
16969;SDS011;8601;48.718;8.992;2023-04-06T04:10:48;12.77;;;9.63;;
16969;SDS011;8601;48.718;8.992;2023-04-06T04:13:36;14.10;;;10.43;;
16969;SDS011;8601;48.718;8.992;2023-04-06T04:17:02;12.80;;;10.77;;
16969;SDS011;8601;48.718;8.992;2023-04-06T04:19:52;12.50;;;10.97;;
16969;SDS011;8601;48.718;8.992;2023-04-06T04:22:37;11.73;;;10.53;;
16969;SDS011;8601;48.718;8.992;2023-04-06T04:25:24;14.23;;;10.13;;
16969;SDS011;8601;48.718;8.992;2023-04-06T04:28:21;13.33;;;11.10;;
16969;SDS011;8601;48.718;8.992;2023-04-06T04:31:33;12.67;;;11.23;;
16969;SDS011;8601;48.718;8.992;2023-04-06T04:34:39;11.93;;;10.17;;
16969;SDS011;8601;48.718;8.992;2023-04-06T04:39:47;12.07;;;10.77;;
16969;SDS011;8601;48.718;8.992;2023-04-06T04:40:59;12.17;;;10.97;;
16969;SDS011;8601;48.718;8.992;2023-04-06T04:50:35;11.63;;;10.43;;
16969;SDS011;8601;48.718;8.992;2023-04-06T04:53:43;13.13;;;11.80;;
16969;SDS011;8601;48.718;8.992;2023-04-06T04:56:58;13.23;;;10.90;;
16969;SDS011;8601;48.718;8.992;2023-04-06T05:00:03;13.87;;;11.30;;
16969;SDS011;8601;48.718;8.992;2023-04-06T05:03:02;12.80;;;10.87;;
16969;SDS011;8601;48.718;8.992;2023-04-06T05:06:26;13.90;;;10.87;;
16969;SDS011;8601;48.718;8.992;2023-04-06T05:12:40;12.20;;;10.23;;
16969;SDS011;8601;48.718;8.992;2023-04-06T05:15:36;13.03;;;10.87;;
16969;SDS011;8601;48.718;8.992;2023-04-06T05:18:43;13.13;;;10.93;;
16969;SDS011;8601;48.718;8.992;2023-04-06T05:21:40;12.60;;;10.20;;
16969;SDS011;8601;48.718;8.992;2023-04-06T05:24:52;11.83;;;10.57;;
16969;SDS011;8601;48.718;8.992;2023-04-06T05:27:40;14.97;;;10.93;;
16969;SDS011;8601;48.718;8.992;2023-04-06T05:30:42;11.73;;;9.83;;
16969;SDS011;8601;48.718;8.992;2023-04-06T05:36:54;15.70;;;10.97;;
16969;SDS011;8601;48.718;8.992;2023-04-06T05:39:27;12.63;;;9.90;;
16969;SDS011;8601;48.718;8.992;2023-04-06T05:45:51;13.50;;;10.20;;
16969;SDS011;8601;48.718;8.992;2023-04-06T05:49:07;12.33;;;10.63;;
16969;SDS011;8601;48.718;8.992;2023-04-06T05:51:52;12.73;;;10.53;;
16969;SDS011;8601;48.718;8.992;2023-04-06T05:54:52;11.80;;;10.17;;
16969;SDS011;8601;48.718;8.992;2023-04-06T05:57:26;12.13;;;10.20;;
16969;SDS011;8601;48.718;8.992;2023-04-06T06:00:01;14.47;;;10.73;;
16969;SDS011;8601;48.718;8.992;2023-04-06T06:02:40;10.90;;;9.70;;
16969;SDS011;8601;48.718;8.992;2023-04-06T06:08:57;12.60;;;10.40;;
16969;SDS011;8601;48.718;8.992;2023-04-06T06:11:56;12.80;;;10.53;;
16969;SDS011;8601;48.718;8.992;2023-04-06T06:15:06;12.63;;;10.93;;
16969;SDS011;8601;48.718;8.992;2023-04-06T06:21:26;16.33;;;10.77;;
16969;SDS011;8601;48.718;8.992;2023-04-06T06:24:43;12.73;;;10.77;;
16969;SDS011;8601;48.718;8.992;2023-04-06T06:27:42;15.63;;;12.00;;
16969;SDS011;8601;48.718;8.992;2023-04-06T06:30:43;13.07;;;10.80;;
16969;SDS011;8601;48.718;8.992;2023-04-06T06:34:06;14.90;;;10.93;;
16969;SDS011;8601;48.718;8.992;2023-04-06T06:37:12;17.30;;;11.47;;
16969;SDS011;8601;48.718;8.992;2023-04-06T06:40:21;18.63;;;11.40;;
16969;SDS011;8601;48.718;8.992;2023-04-06T06:43:05;15.40;;;11.40;;
16969;SDS011;8601;48.718;8.992;2023-04-06T06:46:56;14.60;;;11.10;;
16969;SDS011;8601;48.718;8.992;2023-04-06T06:49:29;16.57;;;12.33;;
16969;SDS011;8601;48.718;8.992;2023-04-06T07:12:53;17.13;;;12.57;;
16969;SDS011;8601;48.718;8.992;2023-04-06T07:16:12;19.57;;;12.53;;
16969;SDS011;8601;48.718;8.992;2023-04-06T07:19:40;20.07;;;11.30;;
16969;SDS011;8601;48.718;8.992;2023-04-06T07:23:00;18.47;;;12.43;;
16969;SDS011;8601;48.718;8.992;2023-04-06T07:26:19;16.27;;;10.87;;
16969;SDS011;8601;48.718;8.992;2023-04-06T07:46:13;14.23;;;9.80;;
16969;SDS011;8601;48.718;8.992;2023-04-06T07:52:31;14.00;;;9.80;;
16969;SDS011;8601;48.718;8.992;2023-04-06T07:55:43;13.17;;;9.77;;
16969;SDS011;8601;48.718;8.992;2023-04-06T07:58:33;12.43;;;10.40;;
16969;SDS011;8601;48.718;8.992;2023-04-06T08:02:09;11.07;;;8.87;;
16969;SDS011;8601;48.718;8.992;2023-04-06T08:08:36;11.60;;;10.17;;
16969;SDS011;8601;48.718;8.992;2023-04-06T08:18:27;10.33;;;9.30;;
16969;SDS011;8601;48.718;8.992;2023-04-06T08:21:26;13.83;;;11.03;;
16969;SDS011;8601;48.718;8.992;2023-04-06T08:24:38;13.30;;;9.90;;
16969;SDS011;8601;48.718;8.992;2023-04-06T08:27:19;12.87;;;9.47;;
16969;SDS011;8601;48.718;8.992;2023-04-06T08:29:54;10.60;;;9.43;;
16969;SDS011;8601;48.718;8.992;2023-04-06T08:32:34;10.27;;;9.27;;
16969;SDS011;8601;48.718;8.992;2023-04-06T08:35:07;12.03;;;8.73;;
16969;SDS011;8601;48.718;8.992;2023-04-06T08:37:34;10.90;;;9.80;;
16969;SDS011;8601;48.718;8.992;2023-04-06T08:40:07;11.67;;;9.20;;
16969;SDS011;8601;48.718;8.992;2023-04-06T08:42:37;9.90;;;8.83;;
16969;SDS011;8601;48.718;8.992;2023-04-06T08:45:09;10.17;;;8.40;;
16969;SDS011;8601;48.718;8.992;2023-04-06T08:47:36;10.37;;;9.23;;
16969;SDS011;8601;48.718;8.992;2023-04-06T08:50:08;9.40;;;8.20;;
16969;SDS011;8601;48.718;8.992;2023-04-06T08:52:36;10.80;;;8.83;;
16969;SDS011;8601;48.718;8.992;2023-04-06T08:55:05;11.37;;;8.97;;
16969;SDS011;8601;48.718;8.992;2023-04-06T08:57:35;13.87;;;8.47;;
16969;SDS011;8601;48.718;8.992;2023-04-06T09:00:02;10.83;;;8.40;;
16969;SDS011;8601;48.718;8.992;2023-04-06T09:02:32;12.03;;;7.93;;
16969;SDS011;8601;48.718;8.992;2023-04-06T09:05:00;9.23;;;7.03;;
16969;SDS011;8601;48.718;8.992;2023-04-06T09:07:28;8.97;;;7.80;;
16969;SDS011;8601;48.718;8.992;2023-04-06T09:09:56;9.07;;;6.30;;
16969;SDS011;8601;48.718;8.992;2023-04-06T09:12:24;7.30;;;6.60;;
16969;SDS011;8601;48.718;8.992;2023-04-06T09:14:52;8.30;;;7.00;;
16969;SDS011;8601;48.718;8.992;2023-04-06T09:17:20;9.07;;;8.10;;
16969;SDS011;8601;48.718;8.992;2023-04-06T09:19:47;9.63;;;7.50;;
16969;SDS011;8601;48.718;8.992;2023-04-06T09:22:15;9.40;;;8.43;;
16969;SDS011;8601;48.718;8.992;2023-04-06T09:24:44;10.47;;;8.00;;
16969;SDS011;8601;48.718;8.992;2023-04-06T09:27:12;9.87;;;7.90;;
16969;SDS011;8601;48.718;8.992;2023-04-06T09:29:40;9.03;;;6.87;;
16969;SDS011;8601;48.718;8.992;2023-04-06T09:32:07;8.70;;;7.53;;
16969;SDS011;8601;48.718;8.992;2023-04-06T09:34:36;7.47;;;6.70;;
16969;SDS011;8601;48.718;8.992;2023-04-06T09:37:11;8.30;;;7.50;;
16969;SDS011;8601;48.718;8.992;2023-04-06T09:39:40;8.00;;;6.97;;
16969;SDS011;8601;48.718;8.992;2023-04-06T09:42:11;7.67;;;6.70;;
16969;SDS011;8601;48.718;8.992;2023-04-06T09:44:49;8.17;;;7.17;;
16969;SDS011;8601;48.718;8.992;2023-04-06T09:47:16;7.17;;;6.20;;
16969;SDS011;8601;48.718;8.992;2023-04-06T09:49:45;7.40;;;6.57;;
16969;SDS011;8601;48.718;8.992;2023-04-06T09:52:14;7.93;;;7.23;;
16969;SDS011;8601;48.718;8.992;2023-04-06T09:54:43;8.40;;;6.90;;
16969;SDS011;8601;48.718;8.992;2023-04-06T09:57:13;7.87;;;7.07;;
16969;SDS011;8601;48.718;8.992;2023-04-06T09:59:52;7.03;;;6.40;;
16969;SDS011;8601;48.718;8.992;2023-04-06T10:02:25;7.57;;;6.87;;
16969;SDS011;8601;48.718;8.992;2023-04-06T10:04:56;7.73;;;6.47;;
16969;SDS011;8601;48.718;8.992;2023-04-06T10:07:29;7.13;;;6.23;;
16969;SDS011;8601;48.718;8.992;2023-04-06T10:09:57;7.03;;;6.37;;
16969;SDS011;8601;48.718;8.992;2023-04-06T10:12:28;6.70;;;6.10;;
16969;SDS011;8601;48.718;8.992;2023-04-06T10:14:55;7.13;;;6.37;;
16969;SDS011;8601;48.718;8.992;2023-04-06T10:17:22;8.73;;;6.80;;
16969;SDS011;8601;48.718;8.992;2023-04-06T10:19:52;8.10;;;5.87;;
16969;SDS011;8601;48.718;8.992;2023-04-06T10:22:22;6.77;;;6.13;;
16969;SDS011;8601;48.718;8.992;2023-04-06T10:24:55;6.93;;;6.23;;
16969;SDS011;8601;48.718;8.992;2023-04-06T10:27:30;7.97;;;7.07;;
16969;SDS011;8601;48.718;8.992;2023-04-06T10:30:02;7.10;;;6.23;;
16969;SDS011;8601;48.718;8.992;2023-04-06T10:32:33;6.50;;;5.90;;
16969;SDS011;8601;48.718;8.992;2023-04-06T10:35:05;6.47;;;5.70;;
16969;SDS011;8601;48.718;8.992;2023-04-06T10:37:45;9.13;;;6.30;;
16969;SDS011;8601;48.718;8.992;2023-04-06T10:40:23;7.03;;;6.13;;
16969;SDS011;8601;48.718;8.992;2023-04-06T10:42:53;6.57;;;5.87;;
16969;SDS011;8601;48.718;8.992;2023-04-06T10:45:22;7.07;;;6.03;;
16969;SDS011;8601;48.718;8.992;2023-04-06T10:47:52;6.10;;;5.50;;
16969;SDS011;8601;48.718;8.992;2023-04-06T10:50:20;5.90;;;5.30;;
16969;SDS011;8601;48.718;8.992;2023-04-06T10:52:47;6.50;;;5.90;;
16969;SDS011;8601;48.718;8.992;2023-04-06T10:55:26;6.47;;;5.60;;
16969;SDS011;8601;48.718;8.992;2023-04-06T10:57:55;7.33;;;5.80;;
16969;SDS011;8601;48.718;8.992;2023-04-06T11:00:22;9.10;;;6.00;;
16969;SDS011;8601;48.718;8.992;2023-04-06T11:02:58;7.57;;;5.90;;
16969;SDS011;8601;48.718;8.992;2023-04-06T11:05:28;7.37;;;5.27;;
16969;SDS011;8601;48.718;8.992;2023-04-06T11:07:56;6.87;;;5.60;;
16969;SDS011;8601;48.718;8.992;2023-04-06T11:10:23;6.70;;;5.97;;
16969;SDS011;8601;48.718;8.992;2023-04-06T11:12:55;6.47;;;5.87;;
16969;SDS011;8601;48.718;8.992;2023-04-06T11:15:25;5.60;;;5.07;;
16969;SDS011;8601;48.718;8.992;2023-04-06T11:17:52;6.83;;;4.97;;
16969;SDS011;8601;48.718;8.992;2023-04-06T11:20:19;6.90;;;6.10;;
16969;SDS011;8601;48.718;8.992;2023-04-06T11:22:49;7.47;;;6.07;;
16969;SDS011;8601;48.718;8.992;2023-04-06T11:25:17;9.73;;;5.93;;
16969;SDS011;8601;48.718;8.992;2023-04-06T11:27:45;6.70;;;6.00;;
16969;SDS011;8601;48.718;8.992;2023-04-06T11:30:16;6.10;;;5.50;;
16969;SDS011;8601;48.718;8.992;2023-04-06T11:32:45;7.83;;;6.50;;
16969;SDS011;8601;48.718;8.992;2023-04-06T11:35:19;6.07;;;5.13;;
16969;SDS011;8601;48.718;8.992;2023-04-06T11:37:48;8.03;;;6.10;;
16969;SDS011;8601;48.718;8.992;2023-04-06T11:40:19;6.33;;;5.47;;
16969;SDS011;8601;48.718;8.992;2023-04-06T11:42:53;6.70;;;5.90;;
16969;SDS011;8601;48.718;8.992;2023-04-06T11:45:26;6.37;;;5.47;;
16969;SDS011;8601;48.718;8.992;2023-04-06T11:48:05;7.07;;;5.53;;
16969;SDS011;8601;48.718;8.992;2023-04-06T11:50:45;5.90;;;5.30;;
16969;SDS011;8601;48.718;8.992;2023-04-06T11:53:16;6.33;;;5.73;;
16969;SDS011;8601;48.718;8.992;2023-04-06T11:55:58;6.80;;;5.40;;
16969;SDS011;8601;48.718;8.992;2023-04-06T11:58:47;6.20;;;5.40;;
16969;SDS011;8601;48.718;8.992;2023-04-06T12:01:45;8.73;;;5.93;;
16969;SDS011;8601;48.718;8.992;2023-04-06T12:04:17;6.23;;;5.63;;
16969;SDS011;8601;48.718;8.992;2023-04-06T12:06:44;6.53;;;5.80;;
16969;SDS011;8601;48.718;8.992;2023-04-06T12:09:11;6.07;;;5.47;;
16969;SDS011;8601;48.718;8.992;2023-04-06T12:11:47;8.13;;;6.27;;
16969;SDS011;8601;48.718;8.992;2023-04-06T12:14:15;6.07;;;5.47;;
16969;SDS011;8601;48.718;8.992;2023-04-06T12:16:43;6.47;;;5.83;;
16969;SDS011;8601;48.718;8.992;2023-04-06T12:19:15;6.83;;;5.70;;
16969;SDS011;8601;48.718;8.992;2023-04-06T12:21:56;6.23;;;5.57;;
16969;SDS011;8601;48.718;8.992;2023-04-06T12:24:29;6.30;;;5.60;;
16969;SDS011;8601;48.718;8.992;2023-04-06T12:27:04;5.93;;;5.33;;
16969;SDS011;8601;48.718;8.992;2023-04-06T12:29:33;7.10;;;5.50;;
16969;SDS011;8601;48.718;8.992;2023-04-06T12:32:02;6.00;;;5.40;;
16969;SDS011;8601;48.718;8.992;2023-04-06T12:34:44;5.37;;;4.87;;
16969;SDS011;8601;48.718;8.992;2023-04-06T12:37:14;5.40;;;4.87;;
16969;SDS011;8601;48.718;8.992;2023-04-06T12:39:45;6.67;;;6.03;;
16969;SDS011;8601;48.718;8.992;2023-04-06T12:42:17;8.47;;;5.07;;
16969;SDS011;8601;48.718;8.992;2023-04-06T12:44:50;6.03;;;5.10;;
16969;SDS011;8601;48.718;8.992;2023-04-06T12:47:20;7.00;;;6.00;;
16969;SDS011;8601;48.718;8.992;2023-04-06T12:49:47;6.07;;;5.20;;
16969;SDS011;8601;48.718;8.992;2023-04-06T12:52:20;6.23;;;5.63;;
16969;SDS011;8601;48.718;8.992;2023-04-06T12:54:52;6.00;;;5.40;;
16969;SDS011;8601;48.718;8.992;2023-04-06T12:57:19;6.17;;;5.50;;
16969;SDS011;8601;48.718;8.992;2023-04-06T12:59:46;6.17;;;5.53;;
16969;SDS011;8601;48.718;8.992;2023-04-06T13:02:13;6.20;;;5.30;;
16969;SDS011;8601;48.718;8.992;2023-04-06T13:04:42;6.37;;;5.30;;
16969;SDS011;8601;48.718;8.992;2023-04-06T13:07:09;7.37;;;5.03;;
16969;SDS011;8601;48.718;8.992;2023-04-06T13:09:36;9.23;;;4.90;;
16969;SDS011;8601;48.718;8.992;2023-04-06T13:12:05;5.93;;;5.07;;
16969;SDS011;8601;48.718;8.992;2023-04-06T13:14:36;6.90;;;5.33;;
16969;SDS011;8601;48.718;8.992;2023-04-06T13:17:04;5.70;;;5.20;;
16969;SDS011;8601;48.718;8.992;2023-04-06T13:19:33;5.80;;;5.20;;
16969;SDS011;8601;48.718;8.992;2023-04-06T13:22:01;5.43;;;4.83;;
16969;SDS011;8601;48.718;8.992;2023-04-06T13:24:28;5.40;;;4.87;;
16969;SDS011;8601;48.718;8.992;2023-04-06T13:26:55;5.93;;;4.93;;
16969;SDS011;8601;48.718;8.992;2023-04-06T13:29:22;6.40;;;5.20;;
16969;SDS011;8601;48.718;8.992;2023-04-06T13:31:52;7.27;;;5.63;;
16969;SDS011;8601;48.718;8.992;2023-04-06T13:34:22;6.27;;;5.67;;
16969;SDS011;8601;48.718;8.992;2023-04-06T13:36:54;5.73;;;4.80;;
16969;SDS011;8601;48.718;8.992;2023-04-06T13:39:25;5.73;;;5.20;;
16969;SDS011;8601;48.718;8.992;2023-04-06T13:41:57;6.10;;;5.43;;
16969;SDS011;8601;48.718;8.992;2023-04-06T13:44:25;5.93;;;5.40;;
16969;SDS011;8601;48.718;8.992;2023-04-06T13:46:55;6.73;;;5.63;;
16969;SDS011;8601;48.718;8.992;2023-04-06T13:49:30;6.90;;;5.13;;
16969;SDS011;8601;48.718;8.992;2023-04-06T13:51:57;5.50;;;5.00;;
16969;SDS011;8601;48.718;8.992;2023-04-06T13:54:27;5.57;;;5.00;;
16969;SDS011;8601;48.718;8.992;2023-04-06T13:56:54;5.27;;;4.40;;
16969;SDS011;8601;48.718;8.992;2023-04-06T13:59:25;5.40;;;5.00;;
16969;SDS011;8601;48.718;8.992;2023-04-06T14:01:58;5.30;;;4.80;;
16969;SDS011;8601;48.718;8.992;2023-04-06T14:04:36;5.80;;;4.67;;
16969;SDS011;8601;48.718;8.992;2023-04-06T14:07:13;6.03;;;5.10;;
16969;SDS011;8601;48.718;8.992;2023-04-06T14:09:41;7.13;;;4.80;;
16969;SDS011;8601;48.718;8.992;2023-04-06T14:12:08;4.87;;;4.37;;
16969;SDS011;8601;48.718;8.992;2023-04-06T14:14:35;6.10;;;5.23;;
16969;SDS011;8601;48.718;8.992;2023-04-06T14:17:02;6.27;;;5.20;;
16969;SDS011;8601;48.718;8.992;2023-04-06T14:19:39;5.00;;;4.50;;
16969;SDS011;8601;48.718;8.992;2023-04-06T14:22:06;5.57;;;5.07;;
16969;SDS011;8601;48.718;8.992;2023-04-06T14:24:33;5.40;;;4.87;;
16969;SDS011;8601;48.718;8.992;2023-04-06T14:27:02;5.80;;;5.17;;
16969;SDS011;8601;48.718;8.992;2023-04-06T14:29:29;6.10;;;4.83;;
16969;SDS011;8601;48.718;8.992;2023-04-06T14:31:55;5.93;;;5.30;;
16969;SDS011;8601;48.718;8.992;2023-04-06T14:34:25;5.33;;;4.57;;
16969;SDS011;8601;48.718;8.992;2023-04-06T14:36:57;6.27;;;5.23;;
16969;SDS011;8601;48.718;8.992;2023-04-06T14:39:25;6.60;;;5.53;;
16969;SDS011;8601;48.718;8.992;2023-04-06T14:41:52;6.13;;;5.53;;
16969;SDS011;8601;48.718;8.992;2023-04-06T14:44:20;9.53;;;5.27;;
16969;SDS011;8601;48.718;8.992;2023-04-06T14:46:47;6.17;;;5.57;;
16969;SDS011;8601;48.718;8.992;2023-04-06T14:49:16;6.83;;;4.20;;
16969;SDS011;8601;48.718;8.992;2023-04-06T14:51:43;5.10;;;4.60;;
16969;SDS011;8601;48.718;8.992;2023-04-06T14:54:10;5.53;;;4.90;;
16969;SDS011;8601;48.718;8.992;2023-04-06T14:56:37;5.77;;;4.87;;
16969;SDS011;8601;48.718;8.992;2023-04-06T14:59:05;7.37;;;5.07;;
16969;SDS011;8601;48.718;8.992;2023-04-06T15:01:34;7.27;;;5.37;;
16969;SDS011;8601;48.718;8.992;2023-04-06T15:04:02;5.20;;;4.70;;
16969;SDS011;8601;48.718;8.992;2023-04-06T15:06:29;6.60;;;4.17;;
16969;SDS011;8601;48.718;8.992;2023-04-06T15:08:57;5.77;;;5.10;;
16969;SDS011;8601;48.718;8.992;2023-04-06T15:11:25;6.63;;;5.07;;
16969;SDS011;8601;48.718;8.992;2023-04-06T15:13:52;5.20;;;4.70;;
16969;SDS011;8601;48.718;8.992;2023-04-06T15:16:19;5.43;;;4.93;;
16969;SDS011;8601;48.718;8.992;2023-04-06T15:18:48;6.17;;;5.27;;
16969;SDS011;8601;48.718;8.992;2023-04-06T15:21:14;6.37;;;5.20;;
16969;SDS011;8601;48.718;8.992;2023-04-06T15:23:44;5.77;;;5.00;;
16969;SDS011;8601;48.718;8.992;2023-04-06T15:26:11;6.10;;;5.00;;
16969;SDS011;8601;48.718;8.992;2023-04-06T15:28:38;5.53;;;4.93;;
16969;SDS011;8601;48.718;8.992;2023-04-06T15:31:12;7.43;;;5.07;;
16969;SDS011;8601;48.718;8.992;2023-04-06T15:33:42;10.00;;;4.80;;
16969;SDS011;8601;48.718;8.992;2023-04-06T15:36:21;5.50;;;5.00;;
16969;SDS011;8601;48.718;8.992;2023-04-06T15:38:53;5.90;;;5.33;;
16969;SDS011;8601;48.718;8.992;2023-04-06T15:41:21;8.13;;;5.30;;
16969;SDS011;8601;48.718;8.992;2023-04-06T15:43:48;6.30;;;4.90;;
16969;SDS011;8601;48.718;8.992;2023-04-06T15:46:18;7.23;;;5.20;;
16969;SDS011;8601;48.718;8.992;2023-04-06T15:48:45;5.83;;;5.20;;
16969;SDS011;8601;48.718;8.992;2023-04-06T15:51:15;7.70;;;5.67;;
16969;SDS011;8601;48.718;8.992;2023-04-06T15:53:42;7.23;;;5.70;;
16969;SDS011;8601;48.718;8.992;2023-04-06T15:56:09;6.80;;;5.27;;
16969;SDS011;8601;48.718;8.992;2023-04-06T15:58:38;7.13;;;5.73;;
16969;SDS011;8601;48.718;8.992;2023-04-06T16:01:12;7.57;;;5.53;;
16969;SDS011;8601;48.718;8.992;2023-04-06T16:03:39;6.90;;;6.20;;
16969;SDS011;8601;48.718;8.992;2023-04-06T16:06:07;7.37;;;6.13;;
16969;SDS011;8601;48.718;8.992;2023-04-06T16:08:37;6.60;;;5.90;;
16969;SDS011;8601;48.718;8.992;2023-04-06T16:11:04;7.67;;;6.03;;
16969;SDS011;8601;48.718;8.992;2023-04-06T16:13:31;8.20;;;6.17;;
16969;SDS011;8601;48.718;8.992;2023-04-06T16:15:58;8.03;;;6.03;;
16969;SDS011;8601;48.718;8.992;2023-04-06T16:18:25;7.13;;;6.43;;
16969;SDS011;8601;48.718;8.992;2023-04-06T16:20:54;7.73;;;6.03;;
16969;SDS011;8601;48.718;8.992;2023-04-06T16:23:21;8.33;;;6.13;;
16969;SDS011;8601;48.718;8.992;2023-04-06T16:25:49;7.33;;;6.53;;
16969;SDS011;8601;48.718;8.992;2023-04-06T16:28:18;9.47;;;6.63;;
16969;SDS011;8601;48.718;8.992;2023-04-06T16:30:45;7.43;;;6.27;;
16969;SDS011;8601;48.718;8.992;2023-04-06T16:33:12;8.67;;;6.87;;
16969;SDS011;8601;48.718;8.992;2023-04-06T16:35:44;7.30;;;6.60;;
16969;SDS011;8601;48.718;8.992;2023-04-06T16:38:11;8.07;;;6.60;;
16969;SDS011;8601;48.718;8.992;2023-04-06T16:40:38;9.47;;;7.17;;
16969;SDS011;8601;48.718;8.992;2023-04-06T16:43:07;9.13;;;6.60;;
16969;SDS011;8601;48.718;8.992;2023-04-06T16:45:34;8.03;;;6.10;;
16969;SDS011;8601;48.718;8.992;2023-04-06T16:48:01;9.30;;;6.97;;
16969;SDS011;8601;48.718;8.992;2023-04-06T16:50:28;7.93;;;6.57;;
16969;SDS011;8601;48.718;8.992;2023-04-06T16:52:55;12.80;;;6.70;;
16969;SDS011;8601;48.718;8.992;2023-04-06T16:55:22;8.57;;;6.67;;
16969;SDS011;8601;48.718;8.992;2023-04-06T16:57:53;7.37;;;5.57;;
16969;SDS011;8601;48.718;8.992;2023-04-06T17:00:22;7.00;;;6.23;;
16969;SDS011;8601;48.718;8.992;2023-04-06T17:02:49;10.33;;;5.87;;
16969;SDS011;8601;48.718;8.992;2023-04-06T17:05:17;7.47;;;5.50;;
16969;SDS011;8601;48.718;8.992;2023-04-06T17:07:48;6.33;;;5.47;;